Estación Meteorológica Peña el Pijo (Robertgarden) [ 06/23/21 04:37:59 CEST ]

Fecha Hora Presion(HPa) Temp (°C) Humedad % Rocio (°C) Viento ( m/s) Direccion Lluvia 1Hora(mm) Lluvia 24H(mm) LLuvia Total(mm)
2016-Mar-29 01:01:12 1010.900 5.8 68 0.4         960.37
2016-Mar-29 02:01:16 1010.600 4.2 72 -0.4         960.37
2016-Mar-29 03:01:46 1010.600 3.9 75 -0.1         960.37
2016-Mar-29 04:01:43 1009.900 3.6 77 -0.1         960.37
2016-Mar-29 05:03:35 1009.200 2.8 79 -0.5         960.37
2016-Mar-29 06:01:43 1009.000 2.0 80 -1.1         960.37
2016-Mar-29 07:01:49 1009.700 1.3 81 -1.6         960.37
2016-Mar-29 08:01:14 1009.700 1.4 83 -1.2         960.37
2016-Mar-29 09:01:14 1009.900 2.6 84 0.1         960.37
2016-Mar-29 10:01:13 1009.900 10.8 75 6.5         960.37
2016-Mar-29 11:01:19 1010.000 17.1 49 6.3         960.37
2016-Mar-29 12:01:16 1009.700 20.5 33 3.6         960.37
2016-Mar-29 13:01:16 1009.400 23.1 29 4.0         960.37
2016-Mar-29 14:01:17 1008.700 22.6 26 1.9 1.8 SE     960.37
2016-Mar-29 15:01:17 1007.900 23.6 24 1.6         960.37
2016-Mar-29 16:01:16 1007.600 24.3 23 1.6         960.37
2016-Mar-29 17:01:17 1006.700 24.6 21 0.8         960.37
2016-Mar-29 18:01:13 1006.800 23.6 21 -0.1         960.37
2016-Mar-29 19:01:12 1006.500 22.4 25 1.2         960.37
2016-Mar-29 20:01:19 1006.800 17.9 37 2.9         960.37
2016-Mar-29 21:01:13 1007.200 15.2 42 2.3         960.37
2016-Mar-29 22:01:16 1008.000 11.5 52 2.0         960.37
2016-Mar-29 23:01:16 1008.200 9.2 59 1.5         960.37

Temperatura Máxima:24°    Temperatura Mínima:
Presión Máxima:1010.900 Hpa    Presión Mínima:1006.500 Hpa


Volver